sensor_id;sensor_type;location;lat;lon;timestamp;temperature;humidity
21678;DHT22;11000;50.360;7.582;2022-12-24T00:01:44;11.40;99.90
21678;DHT22;11000;50.360;7.582;2022-12-24T00:04:05;11.40;99.90
21678;DHT22;11000;50.360;7.582;2022-12-24T00:06:25;11.40;99.90
21678;DHT22;11000;50.360;7.582;2022-12-24T00:08:46;11.50;99.90
21678;DHT22;11000;50.360;7.582;2022-12-24T00:11:07;11.50;99.90
21678;DHT22;11000;50.360;7.582;2022-12-24T00:13:27;11.40;99.90
21678;DHT22;11000;50.360;7.582;2022-12-24T00:15:48;11.40;99.90
21678;DHT22;11000;50.360;7.582;2022-12-24T00:18:08;11.50;99.90
21678;DHT22;11000;50.360;7.582;2022-12-24T00:20:29;11.40;99.90
21678;DHT22;11000;50.360;7.582;2022-12-24T00:22:49;11.40;99.90
21678;DHT22;11000;50.360;7.582;2022-12-24T00:25:10;11.50;99.90
21678;DHT22;11000;50.360;7.582;2022-12-24T00:27:30;11.50;99.90
21678;DHT22;11000;50.360;7.582;2022-12-24T00:29:51;11.50;99.90
21678;DHT22;11000;50.360;7.582;2022-12-24T00:32:11;11.50;99.90
21678;DHT22;11000;50.360;7.582;2022-12-24T00:34:32;11.50;99.90
21678;DHT22;11000;50.360;7.582;2022-12-24T00:36:52;11.40;99.90
21678;DHT22;11000;50.360;7.582;2022-12-24T00:39:13;11.30;99.90
21678;DHT22;11000;50.360;7.582;2022-12-24T00:41:33;11.30;99.90
21678;DHT22;11000;50.360;7.582;2022-12-24T00:44:02;11.40;99.90
21678;DHT22;11000;50.360;7.582;2022-12-24T00:46:26;11.30;99.90
21678;DHT22;11000;50.360;7.582;2022-12-24T00:48:47;11.30;99.90
21678;DHT22;11000;50.360;7.582;2022-12-24T00:51:07;11.30;99.90
21678;DHT22;11000;50.360;7.582;2022-12-24T00:53:28;11.30;99.90
21678;DHT22;11000;50.360;7.582;2022-12-24T00:55:48;11.30;99.90
21678;DHT22;11000;50.360;7.582;2022-12-24T00:58:09;11.30;99.90
21678;DHT22;11000;50.360;7.582;2022-12-24T01:00:29;11.20;99.90
21678;DHT22;11000;50.360;7.582;2022-12-24T01:02:50;11.20;99.90
21678;DHT22;11000;50.360;7.582;2022-12-24T01:05:11;11.20;99.90
21678;DHT22;11000;50.360;7.582;2022-12-24T01:07:31;11.20;99.90
21678;DHT22;11000;50.360;7.582;2022-12-24T01:09:52;11.20;99.90
21678;DHT22;11000;50.360;7.582;2022-12-24T01:12:12;11.20;99.90
21678;DHT22;11000;50.360;7.582;2022-12-24T01:14:33;11.20;99.90
21678;DHT22;11000;50.360;7.582;2022-12-24T01:16:53;11.20;99.90
21678;DHT22;11000;50.360;7.582;2022-12-24T01:19:14;11.30;99.90
21678;DHT22;11000;50.360;7.582;2022-12-24T01:21:34;11.20;99.90
21678;DHT22;11000;50.360;7.582;2022-12-24T01:23:55;11.20;99.90
21678;DHT22;11000;50.360;7.582;2022-12-24T01:26:15;11.20;99.90
21678;DHT22;11000;50.360;7.582;2022-12-24T01:28:36;11.10;99.90
21678;DHT22;11000;50.360;7.582;2022-12-24T01:30:57;11.10;99.90
21678;DHT22;11000;50.360;7.582;2022-12-24T01:33:18;11.10;99.90
21678;DHT22;11000;50.360;7.582;2022-12-24T01:35:40;11.10;99.90
21678;DHT22;11000;50.360;7.582;2022-12-24T01:38:01;11.00;99.90
21678;DHT22;11000;50.360;7.582;2022-12-24T01:40:22;10.90;99.90
21678;DHT22;11000;50.360;7.582;2022-12-24T01:43:15;10.90;99.90
21678;DHT22;11000;50.360;7.582;2022-12-24T01:45:54;10.90;99.90
21678;DHT22;11000;50.360;7.582;2022-12-24T01:48:32;10.90;99.90
21678;DHT22;11000;50.360;7.582;2022-12-24T01:50:59;10.90;99.90
21678;DHT22;11000;50.360;7.582;2022-12-24T01:53:21;10.90;99.90
21678;DHT22;11000;50.360;7.582;2022-12-24T01:55:42;10.90;99.90
21678;DHT22;11000;50.360;7.582;2022-12-24T01:58:05;10.80;99.90
21678;DHT22;11000;50.360;7.582;2022-12-24T02:00:27;10.80;99.90
21678;DHT22;11000;50.360;7.582;2022-12-24T02:02:49;10.80;99.90
21678;DHT22;11000;50.360;7.582;2022-12-24T02:05:26;10.70;99.90
21678;DHT22;11000;50.360;7.582;2022-12-24T02:07:48;10.70;99.90
21678;DHT22;11000;50.360;7.582;2022-12-24T02:10:11;10.70;99.90
21678;DHT22;11000;50.360;7.582;2022-12-24T02:12:34;10.70;99.90
21678;DHT22;11000;50.360;7.582;2022-12-24T02:14:56;10.70;99.90
21678;DHT22;11000;50.360;7.582;2022-12-24T02:17:30;10.70;99.90
21678;DHT22;11000;50.360;7.582;2022-12-24T02:23:08;10.80;99.90
21678;DHT22;11000;50.360;7.582;2022-12-24T02:25:49;10.90;99.90
21678;DHT22;11000;50.360;7.582;2022-12-24T02:28:36;10.90;99.90
21678;DHT22;11000;50.360;7.582;2022-12-24T02:31:19;10.80;99.90
21678;DHT22;11000;50.360;7.582;2022-12-24T02:34:32;10.90;99.90
21678;DHT22;11000;50.360;7.582;2022-12-24T02:36:48;10.90;99.90
21678;DHT22;11000;50.360;7.582;2022-12-24T02:39:17;10.90;99.90
21678;DHT22;11000;50.360;7.582;2022-12-24T02:41:42;10.80;99.90
21678;DHT22;11000;50.360;7.582;2022-12-24T02:44:25;10.80;99.90
21678;DHT22;11000;50.360;7.582;2022-12-24T02:46:47;10.80;99.90
21678;DHT22;11000;50.360;7.582;2022-12-24T02:49:07;10.80;99.90
21678;DHT22;11000;50.360;7.582;2022-12-24T02:51:28;10.80;99.90
21678;DHT22;11000;50.360;7.582;2022-12-24T02:53:49;10.80;99.90
21678;DHT22;11000;50.360;7.582;2022-12-24T02:56:40;10.80;99.90
21678;DHT22;11000;50.360;7.582;2022-12-24T02:59:32;10.80;99.90
21678;DHT22;11000;50.360;7.582;2022-12-24T03:02:23;10.90;99.90
21678;DHT22;11000;50.360;7.582;2022-12-24T03:05:06;10.90;99.90
21678;DHT22;11000;50.360;7.582;2022-12-24T03:07:37;10.90;99.90
21678;DHT22;11000;50.360;7.582;2022-12-24T03:10:20;10.90;99.90
21678;DHT22;11000;50.360;7.582;2022-12-24T03:12:47;10.90;99.90
21678;DHT22;11000;50.360;7.582;2022-12-24T03:15:11;10.90;99.90
21678;DHT22;11000;50.360;7.582;2022-12-24T03:17:36;10.90;99.90
21678;DHT22;11000;50.360;7.582;2022-12-24T03:19:56;10.90;99.90
21678;DHT22;11000;50.360;7.582;2022-12-24T03:22:17;10.80;99.90
21678;DHT22;11000;50.360;7.582;2022-12-24T03:24:38;10.80;99.90
21678;DHT22;11000;50.360;7.582;2022-12-24T03:26:59;10.80;99.90
21678;DHT22;11000;50.360;7.582;2022-12-24T03:29:20;10.80;99.90
21678;DHT22;11000;50.360;7.582;2022-12-24T03:31:49;10.80;99.90
21678;DHT22;11000;50.360;7.582;2022-12-24T03:34:10;10.90;99.90
21678;DHT22;11000;50.360;7.582;2022-12-24T03:36:30;10.90;99.90
21678;DHT22;11000;50.360;7.582;2022-12-24T03:38:51;10.90;99.90
21678;DHT22;11000;50.360;7.582;2022-12-24T03:41:11;10.90;99.90
21678;DHT22;11000;50.360;7.582;2022-12-24T03:43:32;10.80;99.90
21678;DHT22;11000;50.360;7.582;2022-12-24T03:45:52;10.80;99.90
21678;DHT22;11000;50.360;7.582;2022-12-24T03:48:13;10.80;99.90
21678;DHT22;11000;50.360;7.582;2022-12-24T03:50:33;10.80;99.90
21678;DHT22;11000;50.360;7.582;2022-12-24T03:52:54;10.80;99.90
21678;DHT22;11000;50.360;7.582;2022-12-24T03:55:15;10.80;99.90
21678;DHT22;11000;50.360;7.582;2022-12-24T03:57:36;10.80;99.90
21678;DHT22;11000;50.360;7.582;2022-12-24T03:59:56;10.80;99.90
21678;DHT22;11000;50.360;7.582;2022-12-24T04:02:17;10.80;99.90
21678;DHT22;11000;50.360;7.582;2022-12-24T04:04:37;10.80;99.90
21678;DHT22;11000;50.360;7.582;2022-12-24T04:06:58;10.70;99.90
21678;DHT22;11000;50.360;7.582;2022-12-24T04:09:19;10.80;99.90
21678;DHT22;11000;50.360;7.582;2022-12-24T04:11:40;10.80;99.90
21678;DHT22;11000;50.360;7.582;2022-12-24T04:14:00;10.80;99.90
21678;DHT22;11000;50.360;7.582;2022-12-24T04:16:21;10.80;99.90
21678;DHT22;11000;50.360;7.582;2022-12-24T04:18:41;10.80;99.90
21678;DHT22;11000;50.360;7.582;2022-12-24T04:21:02;10.80;99.90
21678;DHT22;11000;50.360;7.582;2022-12-24T04:23:23;10.80;99.90
21678;DHT22;11000;50.360;7.582;2022-12-24T04:25:44;10.70;99.90
21678;DHT22;11000;50.360;7.582;2022-12-24T04:28:04;10.70;99.90
21678;DHT22;11000;50.360;7.582;2022-12-24T04:30:25;10.70;99.90
21678;DHT22;11000;50.360;7.582;2022-12-24T04:32:45;10.60;99.90
21678;DHT22;11000;50.360;7.582;2022-12-24T04:35:06;10.60;99.90
21678;DHT22;11000;50.360;7.582;2022-12-24T04:37:26;10.60;99.90
21678;DHT22;11000;50.360;7.582;2022-12-24T04:39:47;10.60;99.90
21678;DHT22;11000;50.360;7.582;2022-12-24T04:42:08;10.50;99.90
21678;DHT22;11000;50.360;7.582;2022-12-24T04:44:28;10.50;99.90
21678;DHT22;11000;50.360;7.582;2022-12-24T04:46:49;10.50;99.90
21678;DHT22;11000;50.360;7.582;2022-12-24T04:49:09;10.50;99.90
21678;DHT22;11000;50.360;7.582;2022-12-24T04:51:30;10.50;99.90
21678;DHT22;11000;50.360;7.582;2022-12-24T04:53:51;10.50;99.90
21678;DHT22;11000;50.360;7.582;2022-12-24T04:56:23;10.60;99.90
21678;DHT22;11000;50.360;7.582;2022-12-24T04:58:44;10.70;99.90
21678;DHT22;11000;50.360;7.582;2022-12-24T05:01:05;10.70;99.90
21678;DHT22;11000;50.360;7.582;2022-12-24T05:03:26;10.70;99.90
21678;DHT22;11000;50.360;7.582;2022-12-24T05:05:47;10.70;99.90
21678;DHT22;11000;50.360;7.582;2022-12-24T05:08:07;10.70;99.90
21678;DHT22;11000;50.360;7.582;2022-12-24T05:10:28;10.60;99.90
21678;DHT22;11000;50.360;7.582;2022-12-24T05:12:48;10.60;99.90
21678;DHT22;11000;50.360;7.582;2022-12-24T05:15:09;10.60;99.90
21678;DHT22;11000;50.360;7.582;2022-12-24T05:17:29;10.60;99.90
21678;DHT22;11000;50.360;7.582;2022-12-24T05:19:50;10.50;99.90
21678;DHT22;11000;50.360;7.582;2022-12-24T05:22:10;10.50;99.90
21678;DHT22;11000;50.360;7.582;2022-12-24T05:24:49;10.40;99.90
21678;DHT22;11000;50.360;7.582;2022-12-24T05:27:29;10.50;99.90
21678;DHT22;11000;50.360;7.582;2022-12-24T05:29:49;10.50;99.90
21678;DHT22;11000;50.360;7.582;2022-12-24T05:32:10;10.50;99.90
21678;DHT22;11000;50.360;7.582;2022-12-24T05:34:30;10.40;99.90
21678;DHT22;11000;50.360;7.582;2022-12-24T05:36:51;10.40;99.90
21678;DHT22;11000;50.360;7.582;2022-12-24T05:39:14;10.40;99.90
21678;DHT22;11000;50.360;7.582;2022-12-24T05:41:35;10.40;99.90
21678;DHT22;11000;50.360;7.582;2022-12-24T05:43:55;10.30;99.90
21678;DHT22;11000;50.360;7.582;2022-12-24T05:46:18;10.30;99.90
21678;DHT22;11000;50.360;7.582;2022-12-24T05:48:39;10.30;99.90
21678;DHT22;11000;50.360;7.582;2022-12-24T05:51:06;10.30;99.90
21678;DHT22;11000;50.360;7.582;2022-12-24T05:53:27;10.30;99.90
21678;DHT22;11000;50.360;7.582;2022-12-24T05:55:48;10.30;99.90
21678;DHT22;11000;50.360;7.582;2022-12-24T05:58:08;10.30;99.90
21678;DHT22;11000;50.360;7.582;2022-12-24T06:00:29;10.20;99.90
21678;DHT22;11000;50.360;7.582;2022-12-24T06:02:49;10.30;99.90
21678;DHT22;11000;50.360;7.582;2022-12-24T06:05:10;10.20;99.90
21678;DHT22;11000;50.360;7.582;2022-12-24T06:07:30;10.20;99.90
21678;DHT22;11000;50.360;7.582;2022-12-24T06:09:51;10.10;99.90
21678;DHT22;11000;50.360;7.582;2022-12-24T06:12:11;10.20;99.90
21678;DHT22;11000;50.360;7.582;2022-12-24T06:14:32;10.10;99.90
21678;DHT22;11000;50.360;7.582;2022-12-24T06:16:52;10.10;99.90
21678;DHT22;11000;50.360;7.582;2022-12-24T06:19:13;10.00;99.90
21678;DHT22;11000;50.360;7.582;2022-12-24T06:21:33;10.00;99.90
21678;DHT22;11000;50.360;7.582;2022-12-24T06:23:54;10.00;99.90
21678;DHT22;11000;50.360;7.582;2022-12-24T06:26:18;10.00;99.90
21678;DHT22;11000;50.360;7.582;2022-12-24T06:28:39;10.00;99.90
21678;DHT22;11000;50.360;7.582;2022-12-24T06:31:01;10.10;99.90
21678;DHT22;11000;50.360;7.582;2022-12-24T06:33:22;10.10;99.90
21678;DHT22;11000;50.360;7.582;2022-12-24T06:35:44;10.00;99.90
21678;DHT22;11000;50.360;7.582;2022-12-24T06:38:05;10.10;99.90
21678;DHT22;11000;50.360;7.582;2022-12-24T06:40:26;10.10;99.90
21678;DHT22;11000;50.360;7.582;2022-12-24T06:42:47;10.10;99.90
21678;DHT22;11000;50.360;7.582;2022-12-24T06:45:08;10.10;99.90
21678;DHT22;11000;50.360;7.582;2022-12-24T06:47:28;10.10;99.90
21678;DHT22;11000;50.360;7.582;2022-12-24T06:49:49;10.20;99.90
21678;DHT22;11000;50.360;7.582;2022-12-24T06:52:09;10.20;99.90
21678;DHT22;11000;50.360;7.582;2022-12-24T06:54:30;10.10;99.90
21678;DHT22;11000;50.360;7.582;2022-12-24T06:56:50;10.10;99.90
21678;DHT22;11000;50.360;7.582;2022-12-24T06:59:11;10.10;99.90
21678;DHT22;11000;50.360;7.582;2022-12-24T07:01:31;10.10;99.90
21678;DHT22;11000;50.360;7.582;2022-12-24T07:03:52;10.10;99.90
21678;DHT22;11000;50.360;7.582;2022-12-24T07:06:18;10.10;99.90
21678;DHT22;11000;50.360;7.582;2022-12-24T07:08:38;10.10;99.90
21678;DHT22;11000;50.360;7.582;2022-12-24T07:10:59;10.20;99.90
21678;DHT22;11000;50.360;7.582;2022-12-24T07:13:19;10.20;99.90
21678;DHT22;11000;50.360;7.582;2022-12-24T07:15:40;10.20;99.90
21678;DHT22;11000;50.360;7.582;2022-12-24T07:18:00;10.20;99.90
21678;DHT22;11000;50.360;7.582;2022-12-24T07:20:21;10.20;99.90
21678;DHT22;11000;50.360;7.582;2022-12-24T07:22:42;10.30;99.90
21678;DHT22;11000;50.360;7.582;2022-12-24T07:25:03;10.30;99.90
21678;DHT22;11000;50.360;7.582;2022-12-24T07:27:23;10.30;99.90
21678;DHT22;11000;50.360;7.582;2022-12-24T07:29:44;10.30;99.90
21678;DHT22;11000;50.360;7.582;2022-12-24T07:32:04;10.30;99.90
21678;DHT22;11000;50.360;7.582;2022-12-24T07:34:25;10.30;99.90
21678;DHT22;11000;50.360;7.582;2022-12-24T07:36:45;10.30;99.90
21678;DHT22;11000;50.360;7.582;2022-12-24T07:39:06;10.30;99.90
21678;DHT22;11000;50.360;7.582;2022-12-24T07:41:26;10.30;99.90
21678;DHT22;11000;50.360;7.582;2022-12-24T07:43:47;10.30;99.90
21678;DHT22;11000;50.360;7.582;2022-12-24T07:46:07;10.30;99.90
21678;DHT22;11000;50.360;7.582;2022-12-24T07:48:29;10.30;99.90
21678;DHT22;11000;50.360;7.582;2022-12-24T07:50:50;10.30;99.90
21678;DHT22;11000;50.360;7.582;2022-12-24T07:53:10;10.30;99.90
21678;DHT22;11000;50.360;7.582;2022-12-24T07:55:31;10.30;99.90
21678;DHT22;11000;50.360;7.582;2022-12-24T07:57:51;10.30;99.90
21678;DHT22;11000;50.360;7.582;2022-12-24T08:00:12;10.30;99.90
21678;DHT22;11000;50.360;7.582;2022-12-24T08:02:33;10.30;99.90
21678;DHT22;11000;50.360;7.582;2022-12-24T08:04:55;10.30;99.90
21678;DHT22;11000;50.360;7.582;2022-12-24T08:07:16;10.40;99.90
21678;DHT22;11000;50.360;7.582;2022-12-24T08:09:37;10.40;99.90
21678;DHT22;11000;50.360;7.582;2022-12-24T08:11:59;10.30;99.90
21678;DHT22;11000;50.360;7.582;2022-12-24T08:14:21;10.30;99.90
21678;DHT22;11000;50.360;7.582;2022-12-24T08:16:42;10.30;99.90
21678;DHT22;11000;50.360;7.582;2022-12-24T08:19:02;10.30;99.90
21678;DHT22;11000;50.360;7.582;2022-12-24T08:21:23;10.30;99.90
21678;DHT22;11000;50.360;7.582;2022-12-24T08:23:45;10.30;99.90
21678;DHT22;11000;50.360;7.582;2022-12-24T08:26:07;10.30;99.90
21678;DHT22;11000;50.360;7.582;2022-12-24T08:28:28;10.30;99.90
21678;DHT22;11000;50.360;7.582;2022-12-24T08:30:49;10.40;99.90
21678;DHT22;11000;50.360;7.582;2022-12-24T08:33:10;10.40;99.90
21678;DHT22;11000;50.360;7.582;2022-12-24T08:35:30;10.40;99.90
21678;DHT22;11000;50.360;7.582;2022-12-24T08:37:51;10.30;99.90
21678;DHT22;11000;50.360;7.582;2022-12-24T08:40:12;10.30;99.90
21678;DHT22;11000;50.360;7.582;2022-12-24T08:42:32;10.30;99.90
21678;DHT22;11000;50.360;7.582;2022-12-24T08:44:52;10.30;99.90
21678;DHT22;11000;50.360;7.582;2022-12-24T08:47:13;10.30;99.90
21678;DHT22;11000;50.360;7.582;2022-12-24T08:49:33;10.30;99.90
21678;DHT22;11000;50.360;7.582;2022-12-24T08:51:54;10.30;99.90
21678;DHT22;11000;50.360;7.582;2022-12-24T08:54:14;10.30;99.90
21678;DHT22;11000;50.360;7.582;2022-12-24T08:56:35;10.30;99.90
21678;DHT22;11000;50.360;7.582;2022-12-24T08:58:55;10.30;99.90
21678;DHT22;11000;50.360;7.582;2022-12-24T09:01:18;10.40;99.90
21678;DHT22;11000;50.360;7.582;2022-12-24T09:03:39;10.40;99.90
21678;DHT22;11000;50.360;7.582;2022-12-24T09:06:02;10.40;99.90
21678;DHT22;11000;50.360;7.582;2022-12-24T09:08:23;10.40;99.90
21678;DHT22;11000;50.360;7.582;2022-12-24T09:10:43;10.40;99.90
21678;DHT22;11000;50.360;7.582;2022-12-24T09:13:04;10.50;99.90
21678;DHT22;11000;50.360;7.582;2022-12-24T09:15:24;10.50;99.90
21678;DHT22;11000;50.360;7.582;2022-12-24T09:17:45;10.60;99.90
21678;DHT22;11000;50.360;7.582;2022-12-24T09:20:06;10.70;99.90
21678;DHT22;11000;50.360;7.582;2022-12-24T09:22:26;10.80;99.90
21678;DHT22;11000;50.360;7.582;2022-12-24T09:24:47;10.80;99.90
21678;DHT22;11000;50.360;7.582;2022-12-24T09:27:08;10.90;99.90
21678;DHT22;11000;50.360;7.582;2022-12-24T09:29:29;11.00;99.90
21678;DHT22;11000;50.360;7.582;2022-12-24T09:31:49;11.00;99.90
21678;DHT22;11000;50.360;7.582;2022-12-24T09:34:10;11.00;99.90
21678;DHT22;11000;50.360;7.582;2022-12-24T09:36:30;11.10;99.90
21678;DHT22;11000;50.360;7.582;2022-12-24T09:38:51;11.10;99.90
21678;DHT22;11000;50.360;7.582;2022-12-24T09:41:15;11.20;99.90
21678;DHT22;11000;50.360;7.582;2022-12-24T09:43:36;11.20;99.90
21678;DHT22;11000;50.360;7.582;2022-12-24T09:46:05;11.20;99.90
21678;DHT22;11000;50.360;7.582;2022-12-24T09:48:29;11.10;99.90
21678;DHT22;11000;50.360;7.582;2022-12-24T09:50:56;11.20;99.90
21678;DHT22;11000;50.360;7.582;2022-12-24T09:53:39;11.20;99.90
21678;DHT22;11000;50.360;7.582;2022-12-24T09:56:08;11.20;99.90
21678;DHT22;11000;50.360;7.582;2022-12-24T09:58:35;11.20;99.90
21678;DHT22;11000;50.360;7.582;2022-12-24T10:00:56;11.20;99.90
21678;DHT22;11000;50.360;7.582;2022-12-24T10:03:17;11.20;99.90
21678;DHT22;11000;50.360;7.582;2022-12-24T10:05:44;11.20;99.90
21678;DHT22;11000;50.360;7.582;2022-12-24T10:08:22;11.30;99.90
21678;DHT22;11000;50.360;7.582;2022-12-24T10:10:49;11.20;99.90
21678;DHT22;11000;50.360;7.582;2022-12-24T10:13:31;11.30;99.90
21678;DHT22;11000;50.360;7.582;2022-12-24T10:18:53;11.30;99.90
21678;DHT22;11000;50.360;7.582;2022-12-24T10:24:41;11.50;99.90
21678;DHT22;11000;50.360;7.582;2022-12-24T10:27:15;11.50;99.90
21678;DHT22;11000;50.360;7.582;2022-12-24T10:29:41;11.50;99.90
21678;DHT22;11000;50.360;7.582;2022-12-24T10:34:42;11.80;99.90
21678;DHT22;11000;50.360;7.582;2022-12-24T10:37:03;11.80;99.90
21678;DHT22;11000;50.360;7.582;2022-12-24T10:39:25;11.80;99.90
21678;DHT22;11000;50.360;7.582;2022-12-24T10:41:48;11.80;99.90
21678;DHT22;11000;50.360;7.582;2022-12-24T10:44:15;11.80;99.90
21678;DHT22;11000;50.360;7.582;2022-12-24T10:46:38;11.80;99.90
21678;DHT22;11000;50.360;7.582;2022-12-24T10:49:01;11.80;99.90
21678;DHT22;11000;50.360;7.582;2022-12-24T10:51:55;12.00;99.90
21678;DHT22;11000;50.360;7.582;2022-12-24T10:54:23;12.10;99.90
21678;DHT22;11000;50.360;7.582;2022-12-24T10:56:58;12.10;99.90
21678;DHT22;11000;50.360;7.582;2022-12-24T11:01:46;12.30;99.90
21678;DHT22;11000;50.360;7.582;2022-12-24T11:04:21;12.40;99.90
21678;DHT22;11000;50.360;7.582;2022-12-24T11:09:23;12.40;99.90
21678;DHT22;11000;50.360;7.582;2022-12-24T11:11:44;12.40;99.90
21678;DHT22;11000;50.360;7.582;2022-12-24T11:14:14;12.50;99.90
21678;DHT22;11000;50.360;7.582;2022-12-24T11:16:36;12.60;99.90
21678;DHT22;11000;50.360;7.582;2022-12-24T11:18:58;12.60;99.90
21678;DHT22;11000;50.360;7.582;2022-12-24T11:21:26;12.60;99.90
21678;DHT22;11000;50.360;7.582;2022-12-24T11:23:50;12.60;99.90
21678;DHT22;11000;50.360;7.582;2022-12-24T11:26:11;12.60;99.90
21678;DHT22;11000;50.360;7.582;2022-12-24T11:28:31;12.60;99.90
21678;DHT22;11000;50.360;7.582;2022-12-24T11:31:00;12.60;99.90
21678;DHT22;11000;50.360;7.582;2022-12-24T11:33:21;12.70;99.90
21678;DHT22;11000;50.360;7.582;2022-12-24T11:35:47;12.70;99.90
21678;DHT22;11000;50.360;7.582;2022-12-24T11:38:18;12.70;99.90
21678;DHT22;11000;50.360;7.582;2022-12-24T11:43:03;12.80;99.90
21678;DHT22;11000;50.360;7.582;2022-12-24T11:45:29;12.90;99.90
21678;DHT22;11000;50.360;7.582;2022-12-24T11:47:51;13.00;99.90
21678;DHT22;11000;50.360;7.582;2022-12-24T11:52:46;13.00;99.90
21678;DHT22;11000;50.360;7.582;2022-12-24T11:57:55;12.90;99.90
21678;DHT22;11000;50.360;7.582;2022-12-24T12:00:17;13.00;99.90
21678;DHT22;11000;50.360;7.582;2022-12-24T12:02:39;13.10;99.90
21678;DHT22;11000;50.360;7.582;2022-12-24T12:05:12;13.10;99.90
21678;DHT22;11000;50.360;7.582;2022-12-24T12:07:36;13.30;99.90
21678;DHT22;11000;50.360;7.582;2022-12-24T12:12:34;13.50;99.90
21678;DHT22;11000;50.360;7.582;2022-12-24T12:15:15;13.60;99.90
21678;DHT22;11000;50.360;7.582;2022-12-24T12:20:12;13.40;99.90
21678;DHT22;11000;50.360;7.582;2022-12-24T12:22:51;13.30;99.90
21678;DHT22;11000;50.360;7.582;2022-12-24T12:25:49;13.20;99.90
21678;DHT22;11000;50.360;7.582;2022-12-24T12:28:21;13.30;99.90
21678;DHT22;11000;50.360;7.582;2022-12-24T12:30:43;13.30;99.90
21678;DHT22;11000;50.360;7.582;2022-12-24T12:33:18;13.30;99.90
21678;DHT22;11000;50.360;7.582;2022-12-24T12:35:42;13.30;99.90
21678;DHT22;11000;50.360;7.582;2022-12-24T12:38:07;13.30;99.90
21678;DHT22;11000;50.360;7.582;2022-12-24T12:41:09;13.30;99.90
21678;DHT22;11000;50.360;7.582;2022-12-24T12:43:54;13.30;99.90
21678;DHT22;11000;50.360;7.582;2022-12-24T12:48:55;13.30;99.90
21678;DHT22;11000;50.360;7.582;2022-12-24T12:51:24;13.30;99.90
21678;DHT22;11000;50.360;7.582;2022-12-24T12:54:01;13.40;99.90
21678;DHT22;11000;50.360;7.582;2022-12-24T12:56:30;13.50;99.90
21678;DHT22;11000;50.360;7.582;2022-12-24T12:58:55;13.50;99.90
21678;DHT22;11000;50.360;7.582;2022-12-24T13:01:28;13.50;99.90
21678;DHT22;11000;50.360;7.582;2022-12-24T13:12:39;13.30;99.90
21678;DHT22;11000;50.360;7.582;2022-12-24T13:17:57;13.30;99.90
21678;DHT22;11000;50.360;7.582;2022-12-24T13:20:40;13.20;99.90
21678;DHT22;11000;50.360;7.582;2022-12-24T13:23:11;13.20;99.90
21678;DHT22;11000;50.360;7.582;2022-12-24T13:25:52;13.20;99.90
21678;DHT22;11000;50.360;7.582;2022-12-24T13:30:43;13.20;99.90
21678;DHT22;11000;50.360;7.582;2022-12-24T13:33:07;13.30;99.90
21678;DHT22;11000;50.360;7.582;2022-12-24T13:35:33;13.30;99.90
21678;DHT22;11000;50.360;7.582;2022-12-24T13:40:46;13.40;99.90
21678;DHT22;11000;50.360;7.582;2022-12-24T13:43:07;13.50;99.90
21678;DHT22;11000;50.360;7.582;2022-12-24T13:48:01;13.60;99.90
21678;DHT22;11000;50.360;7.582;2022-12-24T13:53:04;13.60;99.90
21678;DHT22;11000;50.360;7.582;2022-12-24T13:55:25;13.60;99.90
21678;DHT22;11000;50.360;7.582;2022-12-24T14:08:11;13.40;99.90
21678;DHT22;11000;50.360;7.582;2022-12-24T14:10:56;13.30;99.90
21678;DHT22;11000;50.360;7.582;2022-12-24T14:16:01;13.20;99.90
21678;DHT22;11000;50.360;7.582;2022-12-24T14:18:23;13.20;99.90
21678;DHT22;11000;50.360;7.582;2022-12-24T14:20:53;13.10;99.90
21678;DHT22;11000;50.360;7.582;2022-12-24T14:23:43;13.20;99.90
21678;DHT22;11000;50.360;7.582;2022-12-24T14:26:16;13.10;99.90
21678;DHT22;11000;50.360;7.582;2022-12-24T14:28:43;13.10;99.90
21678;DHT22;11000;50.360;7.582;2022-12-24T14:31:13;13.10;99.90
21678;DHT22;11000;50.360;7.582;2022-12-24T14:33:34;13.10;99.90
21678;DHT22;11000;50.360;7.582;2022-12-24T14:35:55;13.00;99.90
21678;DHT22;11000;50.360;7.582;2022-12-24T14:38:16;13.10;99.90
21678;DHT22;11000;50.360;7.582;2022-12-24T14:43:49;12.80;99.90
21678;DHT22;11000;50.360;7.582;2022-12-24T14:46:23;12.70;99.90
21678;DHT22;11000;50.360;7.582;2022-12-24T14:51:36;12.40;99.90
21678;DHT22;11000;50.360;7.582;2022-12-24T14:54:30;12.40;99.90
21678;DHT22;11000;50.360;7.582;2022-12-24T14:59:29;12.30;99.90
21678;DHT22;11000;50.360;7.582;2022-12-24T15:01:49;12.20;99.90
21678;DHT22;11000;50.360;7.582;2022-12-24T15:06:34;12.20;99.90
21678;DHT22;11000;50.360;7.582;2022-12-24T15:08:55;12.20;99.90
21678;DHT22;11000;50.360;7.582;2022-12-24T15:11:21;12.10;99.90
21678;DHT22;11000;50.360;7.582;2022-12-24T15:13:44;12.10;99.90
21678;DHT22;11000;50.360;7.582;2022-12-24T15:16:10;12.00;99.90
21678;DHT22;11000;50.360;7.582;2022-12-24T15:18:33;12.00;99.90
21678;DHT22;11000;50.360;7.582;2022-12-24T15:20:58;12.10;99.90
21678;DHT22;11000;50.360;7.582;2022-12-24T15:23:28;12.00;99.90
21678;DHT22;11000;50.360;7.582;2022-12-24T15:25:49;12.00;99.90
21678;DHT22;11000;50.360;7.582;2022-12-24T15:28:21;12.00;99.90
21678;DHT22;11000;50.360;7.582;2022-12-24T15:30:42;11.90;99.90
21678;DHT22;11000;50.360;7.582;2022-12-24T15:33:02;11.90;99.90
21678;DHT22;11000;50.360;7.582;2022-12-24T15:35:43;11.90;99.90
21678;DHT22;11000;50.360;7.582;2022-12-24T15:38:17;11.80;99.90
21678;DHT22;11000;50.360;7.582;2022-12-24T15:40:47;11.70;99.90
21678;DHT22;11000;50.360;7.582;2022-12-24T15:43:07;11.70;99.90
21678;DHT22;11000;50.360;7.582;2022-12-24T15:45:30;11.60;99.90
21678;DHT22;11000;50.360;7.582;2022-12-24T15:47:59;11.60;99.90
21678;DHT22;11000;50.360;7.582;2022-12-24T15:50:32;11.50;99.90
21678;DHT22;11000;50.360;7.582;2022-12-24T15:52:53;11.40;99.90
21678;DHT22;11000;50.360;7.582;2022-12-24T15:55:32;11.40;99.90
21678;DHT22;11000;50.360;7.582;2022-12-24T15:57:53;11.40;99.90
21678;DHT22;11000;50.360;7.582;2022-12-24T16:00:25;11.40;99.90
21678;DHT22;11000;50.360;7.582;2022-12-24T16:02:52;11.30;99.90
21678;DHT22;11000;50.360;7.582;2022-12-24T16:10:39;11.10;99.90
21678;DHT22;11000;50.360;7.582;2022-12-24T16:13:00;11.20;99.90
21678;DHT22;11000;50.360;7.582;2022-12-24T16:15:21;11.20;99.90
21678;DHT22;11000;50.360;7.582;2022-12-24T16:17:47;11.30;99.90
21678;DHT22;11000;50.360;7.582;2022-12-24T16:20:19;11.30;99.90
21678;DHT22;11000;50.360;7.582;2022-12-24T16:22:45;11.30;99.90
21678;DHT22;11000;50.360;7.582;2022-12-24T16:25:24;11.20;99.90
21678;DHT22;11000;50.360;7.582;2022-12-24T16:27:45;11.30;99.90
21678;DHT22;11000;50.360;7.582;2022-12-24T16:30:07;11.30;99.90
21678;DHT22;11000;50.360;7.582;2022-12-24T16:32:30;11.30;99.90
21678;DHT22;11000;50.360;7.582;2022-12-24T16:34:51;11.20;99.90
21678;DHT22;11000;50.360;7.582;2022-12-24T16:37:11;11.20;99.90